createdAt,value
2023-01-21T19:22:19.595Z,1.40
2023-01-21T19:24:49.239Z,1.40
2023-01-21T19:27:25.499Z,1.40
2023-01-21T19:29:52.181Z,1.40
2023-01-21T19:32:18.909Z,1.40
2023-01-21T19:34:45.517Z,1.40
2023-01-21T19:37:17.972Z,1.40
2023-01-21T19:39:44.682Z,1.40
2023-01-21T19:42:13.417Z,1.50
2023-01-21T19:44:40.304Z,1.50
2023-01-21T19:47:18.504Z,1.50
2023-01-21T19:49:46.007Z,1.50
2023-01-21T19:52:14.272Z,1.60
2023-01-21T19:54:42.265Z,1.60
2023-01-21T19:57:14.732Z,1.60
2023-01-21T19:59:45.820Z,1.70
2023-01-21T20:02:13.005Z,1.70
2023-01-21T20:04:39.835Z,1.70
2023-01-21T20:07:07.190Z,1.60
2023-01-21T20:09:34.959Z,1.60
2023-01-21T20:12:03.484Z,1.60
2023-01-21T20:14:33.096Z,1.60
2023-01-21T20:16:59.806Z,1.60
2023-01-21T20:19:26.353Z,1.60
2023-01-21T20:22:02.151Z,1.60
2023-01-21T20:24:33.350Z,1.60
2023-01-21T20:27:02.269Z,1.60
2023-01-21T20:29:30.327Z,1.70
2023-01-21T20:31:57.050Z,1.70
2023-01-21T20:34:24.676Z,1.70
2023-01-21T20:36:51.824Z,1.70
2023-01-21T20:39:18.428Z,1.60
2023-01-21T20:41:45.104Z,1.70
2023-01-21T20:44:11.865Z,1.70
2023-01-21T20:46:39.270Z,1.70
2023-01-21T20:49:06.211Z,1.70
2023-01-21T20:51:33.075Z,1.70
2023-01-21T20:53:59.756Z,1.70
2023-01-21T20:56:32.831Z,1.70
2023-01-21T20:59:00.112Z,1.70
2023-01-21T21:01:28.434Z,1.70
2023-01-21T21:03:55.051Z,1.70
2023-01-21T21:06:31.183Z,1.80
2023-01-21T21:08:58.266Z,1.80
2023-01-21T21:11:25.164Z,1.80
2023-01-21T21:13:52.565Z,1.80
2023-01-21T21:16:27.556Z,1.80
2023-01-21T21:18:54.520Z,1.80
2023-01-21T21:21:23.660Z,1.80
2023-01-21T21:23:52.081Z,1.80
2023-01-21T21:26:25.711Z,1.80
2023-01-21T21:28:57.424Z,1.80
2023-01-21T21:31:25.896Z,1.80
2023-01-21T21:33:52.679Z,1.80
2023-01-21T21:36:23.048Z,1.80
2023-01-21T21:38:51.711Z,1.80
2023-01-21T21:41:39.309Z,1.70
2023-01-21T21:44:08.433Z,1.60
2023-01-21T21:46:55.325Z,1.60
2023-01-21T21:49:22.152Z,1.50
2023-01-21T21:51:48.800Z,1.40
2023-01-21T21:54:16.495Z,1.30
2023-01-21T21:56:43.355Z,1.30
2023-01-21T21:59:12.205Z,1.20
2023-01-21T22:01:40.508Z,1.20
2023-01-21T22:04:07.179Z,1.20
2023-01-21T22:06:33.836Z,1.10
2023-01-21T22:09:00.757Z,1.10
2023-01-21T22:11:28.674Z,1.10
2023-01-21T22:13:56.561Z,1.10
2023-01-21T22:16:28.580Z,1.10
2023-01-21T22:18:56.792Z,1.10
2023-01-21T22:21:26.628Z,1.20
2023-01-21T22:23:54.505Z,1.20
2023-01-21T22:26:24.305Z,1.30
2023-01-21T22:28:54.031Z,1.30
2023-01-21T22:31:23.577Z,1.30
2023-01-21T22:33:50.703Z,1.40
2023-01-21T22:36:20.264Z,1.40
2023-01-21T22:38:47.482Z,1.40
2023-01-21T22:41:16.004Z,1.50
2023-01-21T22:43:44.786Z,1.50
2023-01-21T22:46:14.108Z,1.50
2023-01-21T22:48:42.032Z,1.50
2023-01-21T22:51:11.946Z,1.50
2023-01-21T22:53:40.172Z,1.40
2023-01-21T22:56:07.500Z,1.40
2023-01-21T22:58:34.834Z,1.40
2023-01-21T23:01:02.130Z,1.40
2023-01-21T23:03:30.659Z,1.50
2023-01-21T23:06:08.196Z,1.50
2023-01-21T23:08:36.972Z,1.60
2023-01-21T23:11:05.254Z,1.60
2023-01-21T23:13:33.634Z,1.60
2023-01-21T23:16:01.042Z,1.60
2023-01-21T23:18:29.351Z,1.70
2023-01-21T23:20:56.494Z,1.60
2023-01-21T23:23:23.946Z,1.60
2023-01-21T23:25:50.598Z,1.70
2023-01-21T23:28:17.671Z,1.70
2023-01-21T23:30:44.899Z,1.70
2023-01-21T23:33:12.711Z,1.70
2023-01-21T23:35:39.663Z,1.70
2023-01-21T23:38:06.702Z,1.70
2023-01-21T23:40:33.625Z,1.70
2023-01-21T23:43:00.669Z,1.70
2023-01-21T23:45:27.758Z,1.70
2023-01-21T23:47:54.985Z,1.70
2023-01-21T23:50:21.832Z,1.70
2023-01-21T23:52:48.500Z,1.70
2023-01-21T23:55:15.217Z,1.60
2023-01-21T23:57:41.825Z,1.60
